createdAt,value
2022-12-29T00:01:33.973Z,67.71
2022-12-29T00:04:00.649Z,67.66
2022-12-29T00:06:27.638Z,67.67
2022-12-29T00:08:54.171Z,67.65
2022-12-29T00:11:23.893Z,67.62
2022-12-29T00:14:09.156Z,67.63
2022-12-29T00:16:37.080Z,67.57
2022-12-29T00:19:05.265Z,67.64
2022-12-29T00:21:50.050Z,67.55
2022-12-29T00:24:25.874Z,67.55
2022-12-29T00:27:23.036Z,67.60
2022-12-29T00:30:08.468Z,67.60
2022-12-29T00:32:53.319Z,67.66
2022-12-29T00:35:31.608Z,67.55
2022-12-29T00:38:22.396Z,67.57
2022-12-29T00:41:08.441Z,67.60
2022-12-29T00:43:53.461Z,67.64
2022-12-29T00:46:20.474Z,67.66
2022-12-29T00:49:05.764Z,67.72
2022-12-29T00:51:32.337Z,67.56
2022-12-29T00:53:58.852Z,67.69
2022-12-29T00:56:25.385Z,67.65
2022-12-29T00:58:52.131Z,67.63
2022-12-29T01:01:18.709Z,67.54
2022-12-29T01:03:45.567Z,67.60
2022-12-29T01:06:12.732Z,67.66
2022-12-29T01:08:39.261Z,67.68
2022-12-29T01:11:11.059Z,67.59
2022-12-29T01:13:42.756Z,67.45
2022-12-29T01:16:11.272Z,67.52
2022-12-29T01:18:37.769Z,67.53
2022-12-29T01:21:06.113Z,67.46
2022-12-29T01:23:33.596Z,67.44
2022-12-29T01:26:12.816Z,67.45
2022-12-29T01:28:40.416Z,67.35
2022-12-29T01:31:10.502Z,67.41
2022-12-29T01:33:37.215Z,67.55
2022-12-29T01:36:05.655Z,67.50
2022-12-29T01:38:33.619Z,67.43
2022-12-29T01:41:00.427Z,67.45
2022-12-29T01:43:45.162Z,67.35
2022-12-29T01:46:20.913Z,67.21
2022-12-29T01:48:51.977Z,67.22
2022-12-29T01:51:19.202Z,67.32
2022-12-29T01:53:46.083Z,67.24
2022-12-29T01:56:17.510Z,67.20
2022-12-29T01:58:47.683Z,67.25
2022-12-29T02:01:18.624Z,67.14
2022-12-29T02:03:45.709Z,67.26
2022-12-29T02:06:19.184Z,67.17
2022-12-29T02:08:47.629Z,67.20
2022-12-29T02:11:15.836Z,67.08
2022-12-29T02:13:42.275Z,67.17
2022-12-29T02:16:08.885Z,67.10
2022-12-29T02:18:57.397Z,67.10
2022-12-29T02:21:49.022Z,67.15
2022-12-29T02:24:36.785Z,67.22
2022-12-29T02:27:33.630Z,67.20
2022-12-29T02:30:18.681Z,67.15
2022-12-29T02:33:18.678Z,67.14
2022-12-29T02:35:54.493Z,67.13
2022-12-29T02:38:25.781Z,67.09
2022-12-29T02:41:03.142Z,67.06
2022-12-29T02:43:48.307Z,67.00
2022-12-29T02:46:29.456Z,66.97
2022-12-29T02:49:07.019Z,66.73
2022-12-29T02:51:45.546Z,66.88
2022-12-29T02:54:30.505Z,66.78
2022-12-29T02:56:57.016Z,66.73
2022-12-29T02:59:24.022Z,66.68
2022-12-29T03:02:27.383Z,66.62
2022-12-29T03:05:21.044Z,66.52
2022-12-29T03:07:59.683Z,66.43
2022-12-29T03:10:48.408Z,66.42
2022-12-29T03:13:46.941Z,66.29
2022-12-29T03:16:34.949Z,66.19
2022-12-29T03:19:44.241Z,66.16
2022-12-29T03:22:28.179Z,66.13
2022-12-29T03:25:16.355Z,65.94
2022-12-29T03:27:50.828Z,65.73
2022-12-29T03:30:18.770Z,65.73
2022-12-29T03:32:49.648Z,65.63
2022-12-29T03:35:21.560Z,65.73
2022-12-29T03:38:25.748Z,65.70
2022-12-29T03:41:06.890Z,65.65
2022-12-29T03:43:35.616Z,65.41
2022-12-29T03:46:02.139Z,65.39
2022-12-29T03:48:28.736Z,65.34
2022-12-29T03:50:55.672Z,65.27
2022-12-29T03:53:22.838Z,65.43
2022-12-29T03:55:49.756Z,65.44
2022-12-29T03:58:16.454Z,65.43
2022-12-29T04:00:57.621Z,65.25
2022-12-29T04:03:24.241Z,65.28
2022-12-29T04:05:51.080Z,65.26
2022-12-29T04:08:17.870Z,65.27
2022-12-29T04:10:44.610Z,65.20
2022-12-29T04:13:12.766Z,65.05
2022-12-29T04:15:39.317Z,65.05
2022-12-29T04:18:05.850Z,65.00
2022-12-29T04:20:52.039Z,64.96
2022-12-29T04:23:18.757Z,64.99
2022-12-29T04:25:47.673Z,65.07
2022-12-29T04:28:15.600Z,64.96
2022-12-29T04:31:03.378Z,65.09
2022-12-29T04:33:35.920Z,65.09
2022-12-29T04:36:03.509Z,65.18
2022-12-29T04:38:30.095Z,65.24
2022-12-29T04:41:00.263Z,65.20
2022-12-29T04:43:27.945Z,65.28
2022-12-29T04:46:12.386Z,65.20
2022-12-29T04:49:00.854Z,65.15
2022-12-29T04:51:50.190Z,65.20
2022-12-29T04:54:17.764Z,65.17
2022-12-29T04:56:49.492Z,65.25
2022-12-29T04:59:17.238Z,64.99
2022-12-29T05:01:46.540Z,64.92
2022-12-29T05:04:13.808Z,64.89
2022-12-29T05:06:42.115Z,64.74
2022-12-29T05:09:08.950Z,64.70
2022-12-29T05:11:35.837Z,64.63
2022-12-29T05:14:02.590Z,64.68
2022-12-29T05:16:29.715Z,64.47
2022-12-29T05:18:57.370Z,64.53
2022-12-29T05:21:23.894Z,64.46
2022-12-29T05:23:51.166Z,64.40
2022-12-29T05:26:17.854Z,64.50
2022-12-29T05:29:08.647Z,64.25
2022-12-29T05:31:35.944Z,64.29
2022-12-29T05:34:03.507Z,64.33
2022-12-29T05:36:35.798Z,64.27
2022-12-29T05:39:04.646Z,64.19
2022-12-29T05:41:31.630Z,64.21
2022-12-29T05:44:25.056Z,64.20
2022-12-29T05:47:09.679Z,64.23
2022-12-29T05:49:52.785Z,64.22
2022-12-29T05:52:42.477Z,64.13
2022-12-29T05:55:09.425Z,64.10
2022-12-29T05:57:36.647Z,64.26
2022-12-29T06:00:10.291Z,64.15
2022-12-29T06:02:43.694Z,64.18
2022-12-29T06:05:10.441Z,64.14
2022-12-29T06:07:38.501Z,64.17
2022-12-29T06:10:06.557Z,64.18
2022-12-29T06:12:40.988Z,64.03
2022-12-29T06:15:07.832Z,64.02
2022-12-29T06:17:35.011Z,64.04
2022-12-29T06:20:02.759Z,64.02
2022-12-29T06:22:29.316Z,64.05
2022-12-29T06:25:00.028Z,64.02
2022-12-29T06:27:28.891Z,64.07
2022-12-29T06:29:55.419Z,63.86
2022-12-29T06:32:21.873Z,63.98
2022-12-29T06:34:52.216Z,63.96
2022-12-29T06:37:18.650Z,63.92
2022-12-29T06:39:46.228Z,63.99
2022-12-29T06:42:14.998Z,63.88
2022-12-29T06:45:00.948Z,63.75
2022-12-29T06:47:27.485Z,63.80
2022-12-29T06:49:53.995Z,63.86
2022-12-29T06:52:20.466Z,63.64
2022-12-29T06:54:46.898Z,63.80
2022-12-29T06:57:13.367Z,63.71
2022-12-29T06:59:40.041Z,63.73
2022-12-29T07:02:06.738Z,63.84
2022-12-29T07:04:33.386Z,63.82
2022-12-29T07:07:00.015Z,63.82
2022-12-29T07:09:26.456Z,63.82
2022-12-29T07:11:53.027Z,64.02
2022-12-29T07:14:19.467Z,64.05
2022-12-29T07:16:46.002Z,64.11
2022-12-29T07:19:12.539Z,64.03
2022-12-29T07:21:39.012Z,64.14
2022-12-29T07:24:05.812Z,64.23
2022-12-29T07:26:36.308Z,64.33
2022-12-29T07:29:04.451Z,64.41
2022-12-29T07:31:31.032Z,64.42
2022-12-29T07:33:57.585Z,64.51
2022-12-29T07:36:26.074Z,64.44
2022-12-29T07:38:55.953Z,64.22
2022-12-29T07:41:22.459Z,64.18
2022-12-29T07:43:51.735Z,64.10
2022-12-29T07:46:57.753Z,64.26
2022-12-29T07:49:25.563Z,64.13
2022-12-29T07:51:53.064Z,63.98
2022-12-29T07:54:19.707Z,64.02
2022-12-29T07:56:46.429Z,64.06
2022-12-29T07:59:12.904Z,63.99
2022-12-29T08:01:39.609Z,64.08
2022-12-29T08:04:06.332Z,64.05
2022-12-29T08:06:33.263Z,64.00
2022-12-29T08:09:08.157Z,64.01
2022-12-29T08:11:38.022Z,64.05
2022-12-29T08:14:04.654Z,64.14
2022-12-29T08:16:31.280Z,64.25
2022-12-29T08:18:57.759Z,64.18
2022-12-29T08:21:24.269Z,64.05
2022-12-29T08:23:50.728Z,64.11
2022-12-29T08:26:17.172Z,64.06
2022-12-29T08:28:43.636Z,63.99
2022-12-29T08:31:10.303Z,63.91
2022-12-29T08:33:36.847Z,63.87
2022-12-29T08:36:06.363Z,63.84
2022-12-29T08:38:33.460Z,63.87
2022-12-29T08:41:01.346Z,63.84
2022-12-29T08:43:28.140Z,63.70
2022-12-29T08:45:54.666Z,63.71
2022-12-29T08:48:22.459Z,63.67
2022-12-29T08:50:50.492Z,63.63
2022-12-29T08:53:18.212Z,63.61
2022-12-29T08:55:58.070Z,63.52
2022-12-29T08:58:29.116Z,63.43
2022-12-29T09:00:57.148Z,63.52
2022-12-29T09:03:54.607Z,63.35
2022-12-29T09:06:11.608Z,63.31
2022-12-29T09:08:38.181Z,63.14
2022-12-29T09:11:17.740Z,63.33
2022-12-29T09:13:44.531Z,63.23
2022-12-29T09:16:11.323Z,63.25
2022-12-29T09:18:39.325Z,63.19
2022-12-29T09:21:06.996Z,62.99
2022-12-29T09:23:34.501Z,62.93
2022-12-29T09:26:01.474Z,62.92
2022-12-29T09:28:29.330Z,62.94
2022-12-29T09:30:56.625Z,62.95
2022-12-29T09:33:23.745Z,62.99
2022-12-29T09:35:53.319Z,62.92
2022-12-29T09:38:20.619Z,62.75
2022-12-29T09:40:56.581Z,62.74
2022-12-29T09:43:43.233Z,62.84
2022-12-29T09:46:28.997Z,62.75
2022-12-29T09:49:07.959Z,62.61
2022-12-29T09:51:37.326Z,62.50
2022-12-29T09:54:21.220Z,62.51
2022-12-29T09:56:48.185Z,62.27
2022-12-29T09:59:20.604Z,62.17
2022-12-29T10:01:55.301Z,62.21
2022-12-29T10:04:22.053Z,62.28
2022-12-29T10:07:32.115Z,62.01
2022-12-29T10:10:21.291Z,61.89
2022-12-29T10:13:05.380Z,61.79
2022-12-29T10:15:39.780Z,61.64
2022-12-29T10:18:15.018Z,61.57
2022-12-29T10:20:56.866Z,61.47
2022-12-29T10:23:36.212Z,61.40
2022-12-29T10:26:04.684Z,61.48
2022-12-29T10:28:34.584Z,61.37
2022-12-29T10:31:09.012Z,61.34
2022-12-29T10:33:41.570Z,61.43
2022-12-29T10:36:21.043Z,61.37
2022-12-29T10:39:03.625Z,61.35
2022-12-29T10:41:39.494Z,61.19
2022-12-29T10:44:13.827Z,61.12
2022-12-29T10:46:40.909Z,61.12
2022-12-29T10:49:21.574Z,61.10
2022-12-29T10:51:52.289Z,60.94
2022-12-29T10:54:24.081Z,60.80
2022-12-29T10:56:55.231Z,60.94
2022-12-29T10:59:23.226Z,61.10
2022-12-29T11:02:18.920Z,60.98
2022-12-29T11:05:15.994Z,60.84
2022-12-29T11:07:42.719Z,60.68
2022-12-29T11:10:33.379Z,60.81
2022-12-29T11:13:04.813Z,60.82
2022-12-29T11:15:50.849Z,60.89
2022-12-29T11:18:40.117Z,60.94
2022-12-29T11:21:25.189Z,60.82
2022-12-29T11:24:03.891Z,60.71
2022-12-29T11:26:34.697Z,60.65
2022-12-29T11:29:20.212Z,60.78
2022-12-29T11:31:49.732Z,60.68
2022-12-29T11:34:24.091Z,60.63
2022-12-29T11:36:53.890Z,60.44
2022-12-29T11:39:29.473Z,60.61
2022-12-29T11:41:56.562Z,60.45
2022-12-29T11:44:23.542Z,60.48
2022-12-29T11:46:52.259Z,60.51
2022-12-29T11:49:22.240Z,60.33
2022-12-29T11:51:50.766Z,60.53
2022-12-29T11:54:23.089Z,60.37
2022-12-29T11:56:51.457Z,60.53
2022-12-29T11:59:36.980Z,60.51
2022-12-29T12:02:42.113Z,60.33
2022-12-29T12:05:27.445Z,60.40
2022-12-29T12:08:20.967Z,60.35
2022-12-29T12:10:59.384Z,60.32
2022-12-29T12:13:43.300Z,60.26
2022-12-29T12:16:15.538Z,60.32
2022-12-29T12:19:11.421Z,60.37
2022-12-29T12:21:46.289Z,60.30
2022-12-29T12:24:24.009Z,60.31
2022-12-29T12:27:02.377Z,60.42
2022-12-29T12:29:44.243Z,60.25
2022-12-29T12:32:17.563Z,60.28
2022-12-29T12:34:46.694Z,60.25
2022-12-29T12:37:20.799Z,60.35
2022-12-29T12:40:02.871Z,60.36
2022-12-29T12:42:53.983Z,60.24
2022-12-29T12:45:38.870Z,60.40
2022-12-29T12:48:23.921Z,60.39
2022-12-29T12:50:50.577Z,60.42
2022-12-29T12:53:16.956Z,60.36
2022-12-29T12:56:08.402Z,60.35
2022-12-29T12:58:50.420Z,60.44
2022-12-29T13:01:42.110Z,60.39
2022-12-29T13:04:23.952Z,60.35
2022-12-29T13:07:05.802Z,60.37
2022-12-29T13:10:09.369Z,60.40
2022-12-29T13:13:06.653Z,60.43
2022-12-29T13:15:46.697Z,60.43
2022-12-29T13:18:40.129Z,60.48
2022-12-29T13:21:24.777Z,60.48
2022-12-29T13:24:11.001Z,60.44
2022-12-29T13:26:48.330Z,60.34
2022-12-29T13:29:30.875Z,60.43
2022-12-29T13:32:23.434Z,60.57
2022-12-29T13:35:11.039Z,60.43
2022-12-29T13:37:56.601Z,60.55
2022-12-29T13:40:28.901Z,60.50
2022-12-29T13:42:56.797Z,60.53
2022-12-29T13:45:26.866Z,60.42
2022-12-29T13:47:56.824Z,60.50
2022-12-29T13:50:28.414Z,60.50
2022-12-29T13:53:30.834Z,60.58
2022-12-29T13:56:03.745Z,60.64
2022-12-29T13:58:30.320Z,60.63
2022-12-29T14:01:14.891Z,60.61
2022-12-29T14:03:48.500Z,60.61
2022-12-29T14:06:29.936Z,60.54
2022-12-29T14:09:03.256Z,60.51
2022-12-29T14:11:41.238Z,60.59
2022-12-29T14:14:19.271Z,60.54
2022-12-29T14:16:46.283Z,60.58
2022-12-29T14:19:28.881Z,60.60
2022-12-29T14:22:04.797Z,60.65
2022-12-29T14:24:34.941Z,60.63
2022-12-29T14:27:21.661Z,60.67
2022-12-29T14:29:52.033Z,60.65
2022-12-29T14:32:21.697Z,60.78
2022-12-29T14:34:52.137Z,60.81
2022-12-29T14:37:30.398Z,60.76
2022-12-29T14:40:27.337Z,60.76
2022-12-29T14:42:56.685Z,60.93
2022-12-29T14:45:30.752Z,60.94
2022-12-29T14:47:57.732Z,60.90
2022-12-29T14:50:37.473Z,60.98
2022-12-29T14:53:06.646Z,60.92
2022-12-29T14:55:40.910Z,61.05
2022-12-29T14:58:46.539Z,61.08
2022-12-29T15:01:20.664Z,60.92
2022-12-29T15:03:55.174Z,61.10
2022-12-29T15:06:25.451Z,61.07
2022-12-29T15:08:52.691Z,61.07
2022-12-29T15:11:41.453Z,61.25
2022-12-29T15:14:29.839Z,61.12
2022-12-29T15:16:56.630Z,61.30
2022-12-29T15:19:25.091Z,61.16
2022-12-29T15:21:53.965Z,61.21
2022-12-29T15:24:20.830Z,61.24
2022-12-29T15:26:52.028Z,61.26
2022-12-29T15:29:33.355Z,61.44
2022-12-29T15:32:02.250Z,61.63
2022-12-29T15:34:32.014Z,61.59
2022-12-29T15:36:59.771Z,61.49
2022-12-29T15:39:31.305Z,61.60
2022-12-29T15:42:06.164Z,61.65
2022-12-29T15:44:37.890Z,61.86
2022-12-29T15:47:22.793Z,61.76
2022-12-29T15:49:56.796Z,61.77
2022-12-29T15:52:24.234Z,61.79
2022-12-29T15:54:52.717Z,61.91
2022-12-29T15:57:28.284Z,62.08
2022-12-29T15:59:55.615Z,62.07
2022-12-29T16:02:23.919Z,62.17
2022-12-29T16:05:16.641Z,62.07
2022-12-29T16:07:42.024Z,62.00
2022-12-29T16:10:33.683Z,62.12
2022-12-29T16:13:41.504Z,62.18
2022-12-29T16:16:21.969Z,62.28
2022-12-29T16:18:56.958Z,62.23
2022-12-29T16:21:32.583Z,62.19
2022-12-29T16:24:13.782Z,62.27
2022-12-29T16:26:47.988Z,62.31
2022-12-29T16:29:15.601Z,62.31
2022-12-29T16:31:52.673Z,62.37
2022-12-29T16:34:30.274Z,62.39
2022-12-29T16:37:29.978Z,62.41
2022-12-29T16:39:57.067Z,62.40
2022-12-29T16:42:51.214Z,62.39
2022-12-29T16:45:18.548Z,62.50
2022-12-29T16:48:01.623Z,62.69
2022-12-29T16:50:28.894Z,62.48
2022-12-29T16:52:55.568Z,62.52
2022-12-29T16:55:22.348Z,62.46
2022-12-29T16:57:53.435Z,62.56
2022-12-29T17:00:26.373Z,62.46
2022-12-29T17:02:56.767Z,62.43
2022-12-29T17:05:23.887Z,62.52
2022-12-29T17:07:51.522Z,62.61
2022-12-29T17:10:18.008Z,62.67
2022-12-29T17:12:47.351Z,62.58
2022-12-29T17:15:26.845Z,62.63
2022-12-29T17:17:56.090Z,62.63
2022-12-29T17:20:28.979Z,62.90
2022-12-29T17:22:56.479Z,62.77
2022-12-29T17:25:29.488Z,62.69
2022-12-29T17:27:59.324Z,62.75
2022-12-29T17:30:33.667Z,62.86
2022-12-29T17:33:10.277Z,62.91
2022-12-29T17:35:36.805Z,62.95
2022-12-29T17:38:15.353Z,63.05
2022-12-29T17:40:42.257Z,63.10
2022-12-29T17:43:12.670Z,63.08
2022-12-29T17:45:40.545Z,63.11
2022-12-29T17:48:12.958Z,63.37
2022-12-29T17:50:40.200Z,63.44
2022-12-29T17:53:12.101Z,63.35
2022-12-29T17:55:38.873Z,63.29
2022-12-29T17:58:17.729Z,63.29
2022-12-29T18:00:46.254Z,63.21
2022-12-29T18:03:42.362Z,63.18
2022-12-29T18:06:11.544Z,63.18
2022-12-29T18:08:39.814Z,63.19
2022-12-29T18:11:26.287Z,63.40
2022-12-29T18:13:53.911Z,63.30
2022-12-29T18:16:21.390Z,63.41
2022-12-29T18:18:47.901Z,63.28
2022-12-29T18:21:18.113Z,63.34
2022-12-29T18:23:45.245Z,63.34
2022-12-29T18:26:30.872Z,63.43
2022-12-29T18:28:58.489Z,63.44
2022-12-29T18:31:28.571Z,63.40
2022-12-29T18:33:57.444Z,63.51
2022-12-29T18:36:24.679Z,63.61
2022-12-29T18:38:53.269Z,63.63
2022-12-29T18:41:30.873Z,63.59
2022-12-29T18:43:58.865Z,63.68
2022-12-29T18:46:25.856Z,63.65
2022-12-29T18:48:53.193Z,63.72
2022-12-29T18:51:22.558Z,63.89
2022-12-29T18:53:49.282Z,63.88
2022-12-29T18:56:15.924Z,63.89
2022-12-29T18:58:42.380Z,63.81
2022-12-29T19:01:19.905Z,63.85
2022-12-29T19:03:46.787Z,63.80
2022-12-29T19:06:13.545Z,63.82
2022-12-29T19:08:40.199Z,63.92
2022-12-29T19:11:06.907Z,64.02
2022-12-29T19:13:34.015Z,63.99
2022-12-29T19:16:00.635Z,63.94
2022-12-29T19:18:45.392Z,64.11
2022-12-29T19:21:13.126Z,64.05
2022-12-29T19:23:39.606Z,64.00
2022-12-29T19:26:06.133Z,64.06
2022-12-29T19:28:32.658Z,64.09
2022-12-29T19:31:01.149Z,64.14
2022-12-29T19:33:28.244Z,64.18
2022-12-29T19:35:59.967Z,64.24
2022-12-29T19:38:26.568Z,64.30
2022-12-29T19:40:54.689Z,64.30
2022-12-29T19:43:21.215Z,64.33
2022-12-29T19:45:47.693Z,64.41
2022-12-29T19:48:17.087Z,64.39
2022-12-29T19:50:44.255Z,64.41
2022-12-29T19:53:11.847Z,64.50
2022-12-29T19:55:45.978Z,64.69
2022-12-29T19:58:12.927Z,64.60
2022-12-29T20:00:41.079Z,64.71
2022-12-29T20:03:08.430Z,64.70
2022-12-29T20:05:36.145Z,64.79
2022-12-29T20:08:04.723Z,64.73
2022-12-29T20:10:31.504Z,64.71
2022-12-29T20:12:57.963Z,64.68
2022-12-29T20:15:24.516Z,64.75
2022-12-29T20:20:37.741Z,64.71
2022-12-29T20:23:04.216Z,64.66
2022-12-29T20:25:47.268Z,64.82
2022-12-29T20:28:15.070Z,64.83
2022-12-29T20:30:41.662Z,64.68
2022-12-29T20:33:08.986Z,64.82
2022-12-29T20:35:37.018Z,64.83
2022-12-29T20:38:04.513Z,64.75
2022-12-29T20:40:31.091Z,64.77
2022-12-29T20:42:57.650Z,64.80
2022-12-29T20:45:24.450Z,64.87
2022-12-29T20:47:50.986Z,64.82
2022-12-29T20:50:17.839Z,64.92
2022-12-29T20:52:44.404Z,64.93
2022-12-29T20:55:10.866Z,64.93
2022-12-29T20:58:13.654Z,65.02
2022-12-29T21:00:25.032Z,65.02
2022-12-29T21:02:52.252Z,65.09
2022-12-29T21:05:26.024Z,65.05
2022-12-29T21:07:54.044Z,65.07
2022-12-29T21:10:21.204Z,65.10
2022-12-29T21:12:48.029Z,65.19
2022-12-29T21:15:14.945Z,65.12
2022-12-29T21:17:42.762Z,65.28
2022-12-29T21:20:18.834Z,65.35
2022-12-29T21:22:46.434Z,65.96
2022-12-29T21:25:13.510Z,66.06
2022-12-29T21:27:45.828Z,66.06
2022-12-29T21:30:12.867Z,66.13
2022-12-29T21:32:40.698Z,66.01
2022-12-29T21:35:08.479Z,66.51
2022-12-29T21:37:35.704Z,66.17
2022-12-29T21:40:03.950Z,66.18
2022-12-29T21:42:31.043Z,66.12
2022-12-29T21:45:20.428Z,66.10
2022-12-29T21:48:06.891Z,65.84
2022-12-29T21:50:57.068Z,65.87
2022-12-29T21:53:36.859Z,65.76
2022-12-29T21:56:15.226Z,66.00
2022-12-29T21:59:04.010Z,65.89
2022-12-29T22:01:51.477Z,65.95
2022-12-29T22:04:39.552Z,65.97
2022-12-29T22:07:26.495Z,66.03
2022-12-29T22:10:11.358Z,66.00
2022-12-29T22:12:56.792Z,66.04
2022-12-29T22:15:23.383Z,66.02
2022-12-29T22:17:51.802Z,66.07
2022-12-29T22:20:21.855Z,65.93
2022-12-29T22:22:48.620Z,66.00
2022-12-29T22:25:15.185Z,66.14
2022-12-29T22:27:42.321Z,66.02
2022-12-29T22:30:09.871Z,66.00
2022-12-29T22:32:36.397Z,66.07
2022-12-29T22:35:07.801Z,66.04
2022-12-29T22:37:36.497Z,66.25
2022-12-29T22:40:04.468Z,66.20
2022-12-29T22:42:30.970Z,66.25
2022-12-29T22:44:57.628Z,66.27
2022-12-29T22:47:24.287Z,66.24
2022-12-29T22:49:50.699Z,66.34
2022-12-29T22:52:17.213Z,66.41
2022-12-29T22:54:43.739Z,66.45
2022-12-29T22:57:10.392Z,66.37
2022-12-29T22:59:36.995Z,66.39
2022-12-29T23:02:03.539Z,66.38
2022-12-29T23:07:16.534Z,66.35
2022-12-29T23:09:42.964Z,66.33
2022-12-29T23:12:09.516Z,66.30
2022-12-29T23:14:35.946Z,66.36
2022-12-29T23:17:02.480Z,66.25
2022-12-29T23:19:29.033Z,66.28
2022-12-29T23:21:55.619Z,66.32
2022-12-29T23:24:22.101Z,66.18
2022-12-29T23:26:48.667Z,66.25
2022-12-29T23:29:18.171Z,66.16
2022-12-29T23:31:46.260Z,66.09
2022-12-29T23:34:14.766Z,66.18
2022-12-29T23:36:41.321Z,66.18
2022-12-29T23:39:08.958Z,66.17
2022-12-29T23:41:35.883Z,66.08
2022-12-29T23:44:02.541Z,66.08
2022-12-29T23:46:29.307Z,66.10
2022-12-29T23:48:55.905Z,66.07
2022-12-29T23:51:22.483Z,66.19
2022-12-29T23:53:49.227Z,66.05
2022-12-29T23:56:21.613Z,66.05
2022-12-29T23:58:49.207Z,66.18
